Hovedside
METAR-TAF:

METAR-TAF

Lufthavner :

Notodden lufthavn

Notodden, Norge

breddegrad: 59-34N, lengdegrad: 009-13E, høyde over havet: 19 m

Gjeldene værobservasjon

Denne rapporten ble laget for 8 timer og 12 minutter siden, klokken 17:50 UTC
Vind 2 kt fra skiftende retning
Temperatur 1°C
Luftfuktighet 93%
Trykk 988 hPa
Sikt: 9000 m
Få skyer i en høyde av 300 ft
Brutte skyer i en høyde av 1900 ft
regnbyger i nærheten

METAR: ENNO 131750Z VRB02KT 9000 VCSH FEW003 BKN019 01/00 Q0988

Tid: 03:02 (02:02 UTC)

Varsel

Denne rapporten ble laget for 15 timer og 2 minutter siden, klokken 11:00 UTC
Varsel gyldig fra 13. klokken 12 UTC til 13. klokken 18 UTC
Vind 3 kt fra skiftende retning
Sikt 10 km eller mer
Spredte skyer i en høyde av 500 ft
Brutte skyer i en høyde av 2500 ft
Midlertidig
fra 13. klokken 12 UTC til 13. klokken 18 UTC
Sikt: 4000 m
Brutte skyer i en høyde av 400 ft
lett snø

TAF: ENNO 131100Z 1312/1318 VRB03KT 9999 SCT005 BKN025 TEMPO 1312/1318 4000 -SN BKN004

Værobservasjoner og værvarsel for over 4000 flyplasser (METAR- og TAF-rapporter).

Tilgjengelige stasjoner er representert av de røde og gule prikkene på kartet.

Hold musepekeren over prikken for å se navnet på stasjonen.

Klikk så for å se værobservasjoner og -varsler.

For å forandre kartet kan du klikke på den grønne knappen med svart kryss for å zoome inn, på den grønne knappen med strek for å zoome ut, eller på de grønne pilene for å se tilstøtende kart.


METAR-TAF: